Time;durP1;ratioP1;P1;durP2;ratioP2;P2;SDS_P1;SDS_P2;PMS_P1;PMS_P2;Temp;Humidity;BMP_temperature;BMP_pressure;BME280_temperature;BME280_humidity;BME280_pressure;Samples;Min_cycle;Max_cycle;Signal;HPM_P1;HPM_P2
2022/02/20 00:01:46;;;;;;;9.52;3.15;;;8.30;71.20;;;;;;5067649;28;20367;-76
2022/02/20 00:04:12;;;;;;;8.57;3.35;;;8.30;71.10;;;;;;5052491;28;20090;-75
2022/02/20 00:06:39;;;;;;;10.50;3.58;;;8.30;71.10;;;;;;5071084;28;20033;-79
2022/02/20 00:09:05;;;;;;;6.13;3.50;;;8.30;71.20;;;;;;5067610;28;20037;-75
2022/02/20 00:11:31;;;;;;;;;;;8.30;70.60;;;;;;5050796;28;20037;-76
2022/02/20 00:13:57;;;;;;;8.27;3.50;;;8.30;71.00;;;;;;5067531;28;19924;-76
2022/02/20 00:16:24;;;;;;;7.40;3.25;;;8.30;71.00;;;;;;5035575;28;20397;-78
2022/02/20 00:18:50;;;;;;;6.70;3.17;;;8.20;71.20;;;;;;5070117;28;20383;-75
2022/02/20 00:21:17;;;;;;;;;;;8.30;71.40;;;;;;5068398;28;20055;-75
2022/02/20 00:23:43;;;;;;;7.60;2.73;;;8.20;71.00;;;;;;5067891;28;19978;-75
2022/02/20 00:26:09;;;;;;;7.05;2.83;;;8.20;71.10;;;;;;5055935;28;20118;-78
2022/02/20 00:28:35;;;;;;;6.75;2.70;;;8.20;71.30;;;;;;5074461;28;20048;-78
2022/02/20 00:31:01;;;;;;;7.60;3.10;;;8.20;71.30;;;;;;5084940;28;20447;-75
2022/02/20 00:33:27;;;;;;;12.40;3.72;;;8.20;71.20;;;;;;5058777;28;20060;-76
2022/02/20 00:35:53;;;;;;;10.15;4.30;;;8.20;71.20;;;;;;5068808;28;20087;-76
2022/02/20 00:38:20;;;;;;;10.75;4.70;;;8.30;71.20;;;;;;5062116;28;20082;-76
2022/02/20 00:40:46;;;;;;;11.40;5.28;;;8.30;71.10;;;;;;5077683;28;20095;-77
2022/02/20 00:43:12;;;;;;;16.25;6.28;;;8.30;71.20;;;;;;5053119;28;20025;-77
2022/02/20 00:45:38;;;;;;;11.90;5.70;;;8.30;71.20;;;;;;5052539;28;20036;-77
2022/02/20 00:48:05;;;;;;;11.52;5.75;;;8.30;71.20;;;;;;5064569;28;20041;-75
2022/02/20 00:50:32;;;;;;;10.57;4.80;;;8.30;71.10;;;;;;5067350;28;20043;-77
2022/02/20 00:52:58;;;;;;;9.45;3.75;;;8.30;71.10;;;;;;5051269;28;20021;-78
2022/02/20 00:55:25;;;;;;;;;;;8.30;71.20;;;;;;5050022;28;20095;-76
2022/02/20 00:57:53;;;;;;;6.90;3.25;;;8.30;70.40;;;;;;5049233;28;19928;-77
2022/02/20 01:00:20;;;;;;;7.05;3.05;;;8.30;70.90;;;;;;5067446;28;20070;-76
2022/02/20 01:02:46;;;;;;;6.75;3.00;;;8.30;71.10;;;;;;5051699;28;20068;-77
2022/02/20 01:05:12;;;;;;;;;;;8.30;71.10;;;;;;5052090;28;20124;-75
2022/02/20 01:07:40;;;;;;;11.02;3.95;;;8.20;71.00;;;;;;5050550;28;19928;-77
2022/02/20 01:10:09;;;;;;;8.65;2.85;;;8.20;70.90;;;;;;5044040;28;20056;-76
2022/02/20 01:12:36;;;;;;;8.40;3.85;;;8.20;71.10;;;;;;5052081;28;20445;-77
2022/02/20 01:15:04;;;;;;;7.00;2.70;;;8.20;71.30;;;;;;5064642;28;20094;-77
2022/02/20 01:17:30;;;;;;;6.05;2.03;;;8.10;71.00;;;;;;5055153;28;20437;-77
2022/02/20 01:19:56;;;;;;;10.45;4.65;;;8.10;71.90;;;;;;5051572;28;20044;-75
2022/02/20 01:22:23;;;;;;;9.90;4.43;;;8.10;71.20;;;;;;5049531;28;20386;-75
2022/02/20 01:24:49;;;;;;;6.38;2.10;;;8.00;70.90;;;;;;5057260;28;20078;-75
2022/02/20 01:27:15;;;;;;;5.00;1.70;;;8.00;71.00;;;;;;5049799;28;20075;-77
2022/02/20 01:29:41;;;;;;;;;;;8.00;70.90;;;;;;5060582;28;20041;-75
2022/02/20 01:32:07;;;;;;;5.50;2.10;;;8.00;70.80;;;;;;5032011;28;19924;-75
2022/02/20 01:34:33;;;;;;;;;;;8.00;70.70;;;;;;5049880;28;20434;-79
2022/02/20 01:36:59;;;;;;;4.10;1.50;;;7.90;70.60;;;;;;5051286;28;19912;-77
2022/02/20 01:39:26;;;;;;;4.03;1.25;;;7.80;70.10;;;;;;5052907;28;20033;-75
2022/02/20 01:41:53;;;;;;;4.95;1.40;;;7.70;70.20;;;;;;5049901;28;20040;-75
2022/02/20 01:44:21;;;;;;;6.53;1.92;;;7.60;70.00;;;;;;5050473;28;20089;-76
2022/02/20 01:46:49;;;;;;;7.60;2.20;;;7.60;70.10;;;;;;5049469;28;20037;-76
2022/02/20 01:49:18;;;;;;;6.00;2.47;;;7.60;70.10;;;;;;5050285;28;20082;-76
2022/02/20 01:51:44;;;;;;;7.07;3.10;;;7.60;69.90;;;;;;5050373;28;20029;-75
2022/02/20 01:54:11;;;;;;;4.78;1.40;;;7.60;69.30;;;;;;5050264;28;20045;-76
2022/02/20 01:56:38;;;;;;;4.90;1.58;;;7.60;69.80;;;;;;5050915;28;20039;-75
2022/02/20 01:59:05;;;;;;;28.48;12.80;;;7.60;69.80;;;;;;5052688;28;20094;-76
2022/02/20 02:01:32;;;;;;;28.75;13.98;;;7.60;69.70;;;;;;5064972;28;20548;-76
2022/02/20 02:03:58;;;;;;;27.50;13.35;;;7.60;69.60;;;;;;5052641;28;20397;-76
2022/02/20 02:06:24;;;;;;;7.18;3.17;;;7.50;69.90;;;;;;5050632;28;20454;-76
2022/02/20 02:08:50;;;;;;;4.05;1.30;;;7.50;69.90;;;;;;5062113;28;20119;-75
2022/02/20 02:11:18;;;;;;;3.00;1.27;;;7.50;70.90;;;;;;5067399;28;20044;-76
2022/02/20 02:13:44;;;;;;;7.75;3.15;;;7.50;69.80;;;;;;5057865;28;20043;-75
2022/02/20 02:16:12;;;;;;;5.22;2.03;;;7.50;69.90;;;;;;5052252;28;20033;-75
2022/02/20 02:18:40;;;;;;;8.13;3.22;;;7.50;69.80;;;;;;5025389;28;20054;-76
2022/02/20 02:21:06;;;;;;;4.80;1.60;;;7.50;69.70;;;;;;5038110;28;20037;-75
2022/02/20 02:23:32;;;;;;;3.88;1.30;;;7.50;69.70;;;;;;5030722;28;20052;-76
2022/02/20 02:25:58;;;;;;;3.95;1.20;;;7.50;69.80;;;;;;5025162;28;20550;-75
2022/02/20 02:28:26;;;;;;;3.47;1.23;;;7.50;69.70;;;;;;5035752;28;20044;-75
2022/02/20 02:30:52;;;;;;;3.92;1.17;;;7.50;69.60;;;;;;5066039;28;20450;-75
2022/02/20 02:33:37;;;;;;;5.88;1.75;;;7.50;69.70;;;;;;5047786;28;20083;-75
2022/02/20 02:36:07;;;;;;;3.80;1.30;;;7.50;70.00;;;;;;5054871;28;20033;-75
2022/02/20 02:38:35;;;;;;;10.75;3.53;;;7.40;69.70;;;;;;5046880;28;20135;-75
2022/02/20 02:41:05;;;;;;;14.70;5.78;;;7.50;69.70;;;;;;5054934;28;20032;-76
2022/02/20 02:43:51;;;;;;;15.73;5.43;;;7.50;69.60;;;;;;5053540;28;20086;-76
2022/02/20 02:46:18;;;;;;;22.50;7.57;;;7.50;69.70;;;;;;5053125;28;20033;-76
2022/02/20 02:48:48;;;;;;;10.02;2.90;;;7.40;69.70;;;;;;5069014;28;20024;-75
2022/02/20 02:51:14;;;;;;;6.03;1.98;;;7.40;69.60;;;;;;5068096;28;20041;-76
2022/02/20 02:53:40;;;;;;;;;;;7.40;69.70;;;;;;5052512;28;20034;-76
2022/02/20 02:56:06;;;;;;;4.50;1.30;;;7.40;69.60;;;;;;5052063;28;19921;-76
2022/02/20 02:58:33;;;;;;;4.82;1.88;;;7.40;69.60;;;;;;5070487;28;20398;-76
2022/02/20 03:00:59;;;;;;;;;;;7.40;69.20;;;;;;5070781;28;20036;-76
2022/02/20 03:03:25;;;;;;;4.80;1.60;;;7.40;69.80;;;;;;5069264;28;20285;-75
2022/02/20 03:05:52;;;;;;;4.35;1.55;;;7.40;69.70;;;;;;5070533;28;20505;-75
2022/02/20 03:08:18;;;;;;;2.72;1.05;;;7.40;69.20;;;;;;5036648;28;20064;-76
2022/02/20 03:10:45;;;;;;;3.63;1.30;;;7.30;70.20;;;;;;5065585;28;20036;-76
2022/02/20 03:13:11;;;;;;;1.98;0.80;;;7.30;70.20;;;;;;5071079;28;20044;-75
2022/02/20 03:15:37;;;;;;;2.65;0.90;;;7.30;70.30;;;;;;5055754;28;20037;-76
2022/02/20 03:18:03;;;;;;;3.17;1.17;;;7.40;70.10;;;;;;5079442;28;20036;-76
2022/02/20 03:20:29;;;;;;;;;;;7.40;70.00;;;;;;5060266;28;20394;-75
2022/02/20 03:22:55;;;;;;;2.33;0.82;;;7.40;70.00;;;;;;5054124;28;19921;-76
2022/02/20 03:25:21;;;;;;;2.13;0.88;;;7.30;70.20;;;;;;5052695;28;20043;-76
2022/02/20 03:27:47;;;;;;;2.40;0.80;;;7.30;70.40;;;;;;5059873;28;20033;-76
2022/02/20 03:30:14;;;;;;;3.25;1.08;;;7.30;70.40;;;;;;5043161;28;20088;-75
2022/02/20 03:32:40;;;;;;;;;;;7.30;70.40;;;;;;5028682;28;20044;-76
2022/02/20 03:35:06;;;;;;;3.83;1.30;;;7.30;70.20;;;;;;5046345;28;19927;-76
2022/02/20 03:37:33;;;;;;;1.92;0.70;;;7.30;69.60;;;;;;5035640;28;20052;-76
2022/02/20 03:39:59;;;;;;;2.60;1.02;;;7.30;70.40;;;;;;5048336;28;20029;-76
2022/02/20 03:42:25;;;;;;;4.72;1.40;;;7.30;70.50;;;;;;5034814;28;20033;-76
2022/02/20 03:44:51;;;;;;;2.40;0.80;;;7.20;69.90;;;;;;5050502;28;23447;-75
2022/02/20 03:47:17;;;;;;;3.47;1.00;;;7.20;70.60;;;;;;5048038;28;20321;-75
2022/02/20 03:49:43;;;;;;;3.13;1.02;;;7.20;70.50;;;;;;5048545;28;20515;-75
2022/02/20 03:52:10;;;;;;;3.17;1.08;;;7.20;70.70;;;;;;5049088;28;20421;-75
2022/02/20 03:54:36;;;;;;;2.20;0.95;;;7.20;70.70;;;;;;5032320;28;20064;-75
2022/02/20 03:57:02;;;;;;;3.08;1.10;;;7.20;70.70;;;;;;5048380;28;20041;-76
2022/02/20 03:59:28;;;;;;;;;;;7.20;70.00;;;;;;5022069;28;20033;-76
2022/02/20 04:01:54;;;;;;;4.93;1.20;;;7.20;70.40;;;;;;5037464;28;19920;-75
2022/02/20 04:04:20;;;;;;;3.28;1.17;;;7.20;70.40;;;;;;5053042;28;20052;-75
2022/02/20 04:06:46;;;;;;;2.92;1.02;;;7.20;70.40;;;;;;5049464;28;20398;-75
2022/02/20 04:09:12;;;;;;;3.47;0.88;;;7.20;70.40;;;;;;5039246;28;20041;-76
2022/02/20 04:11:38;;;;;;;2.50;0.90;;;7.20;70.50;;;;;;5044371;28;20080;-75
2022/02/20 04:14:05;;;;;;;3.63;1.10;;;7.20;70.60;;;;;;5051878;28;20468;-75
2022/02/20 04:16:31;;;;;;;2.35;0.88;;;7.20;70.60;;;;;;5044023;28;20053;-75
2022/02/20 04:18:57;;;;;;;2.78;1.00;;;7.20;70.70;;;;;;5049009;28;20033;-76
2022/02/20 04:21:23;;;;;;;2.83;1.25;;;7.20;70.70;;;;;;5034260;28;20044;-77
2022/02/20 04:23:49;;;;;;;2.88;0.88;;;7.20;70.80;;;;;;5051838;28;20147;-75
2022/02/20 04:26:16;;;;;;;1.65;0.75;;;7.20;70.70;;;;;;5049660;28;20513;-75
2022/02/20 04:28:42;;;;;;;3.50;1.40;;;7.20;70.70;;;;;;5068333;28;20410;-76
2022/02/20 04:31:08;;;;;;;2.10;0.88;;;7.20;70.70;;;;;;5052738;28;20113;-76
2022/02/20 04:33:34;;;;;;;2.75;0.93;;;7.10;70.80;;;;;;5050829;28;20040;-75
2022/02/20 04:36:00;;;;;;;3.25;1.17;;;7.20;70.80;;;;;;5050966;28;20079;-75
2022/02/20 04:38:26;;;;;;;4.75;1.27;;;7.10;70.80;;;;;;5066669;28;20040;-75
2022/02/20 04:40:52;;;;;;;3.58;1.05;;;7.20;70.60;;;;;;5050970;28;20395;-76
2022/02/20 04:43:19;;;;;;;3.08;0.98;;;7.20;70.60;;;;;;5067440;28;20054;-76
2022/02/20 04:45:45;;;;;;;;;;;7.20;70.70;;;;;;5069343;28;20123;-76
2022/02/20 04:48:11;;;;;;;3.40;1.20;;;7.10;70.30;;;;;;5070630;28;19927;-75
2022/02/20 04:50:37;;;;;;;5.35;1.45;;;7.20;70.50;;;;;;5050720;28;20064;-76
2022/02/20 04:53:03;;;;;;;3.85;1.27;;;7.20;70.70;;;;;;5052800;28;20037;-75
2022/02/20 04:55:30;;;;;;;4.85;1.50;;;7.20;71.00;;;;;;5049506;28;20367;-75
2022/02/20 04:57:56;;;;;;;4.88;1.30;;;7.20;70.80;;;;;;5064556;28;20437;-75
2022/02/20 05:00:22;;;;;;;5.07;1.65;;;7.20;70.70;;;;;;5043353;28;20048;-75
2022/02/20 05:02:48;;;;;;;3.60;1.67;;;7.20;70.70;;;;;;5060687;28;20029;-76
2022/02/20 05:05:14;;;;;;;6.95;1.60;;;7.20;70.70;;;;;;5041960;28;20430;-75
2022/02/20 05:07:40;;;;;;;3.92;1.35;;;7.20;70.70;;;;;;5036735;28;20033;-76
2022/02/20 05:10:07;;;;;;;5.53;2.17;;;7.10;70.90;;;;;;5043994;28;20077;-76
2022/02/20 05:12:33;;;;;;;5.72;2.22;;;7.10;70.20;;;;;;5046935;28;20048;-76
2022/02/20 05:14:59;;;;;;;5.00;2.08;;;7.10;70.90;;;;;;5046063;28;20041;-76
2022/02/20 05:17:25;;;;;;;6.13;2.92;;;7.10;71.00;;;;;;5038091;28;20037;-75
2022/02/20 05:19:51;;;;;;;8.27;2.63;;;7.10;70.90;;;;;;5017490;28;20045;-76
2022/02/20 05:22:17;;;;;;;25.08;9.82;;;7.10;70.70;;;;;;5030586;28;20036;-76
2022/02/20 05:24:45;;;;;;;30.58;12.65;;;7.10;70.60;;;;;;5047060;28;20469;-76
2022/02/20 05:27:11;;;;;;;27.02;11.25;;;7.20;70.60;;;;;;5047757;28;20087;-76
2022/02/20 05:29:37;;;;;;;;;;;7.20;70.60;;;;;;5061039;28;20049;-75
2022/02/20 05:32:04;;;;;;;11.18;4.60;;;7.20;70.30;;;;;;5046629;28;19920;-75
2022/02/20 05:34:30;;;;;;;4.72;1.83;;;7.20;70.20;;;;;;5045404;28;20083;-76
2022/02/20 05:36:56;;;;;;;4.85;2.00;;;7.20;70.40;;;;;;5046709;28;20029;-76
2022/02/20 05:39:23;;;;;;;4.22;1.38;;;7.20;70.40;;;;;;5034815;28;20045;-76
2022/02/20 05:41:49;;;;;;;4.63;2.20;;;7.20;70.40;;;;;;5043671;28;20048;-76
2022/02/20 05:44:15;;;;;;;8.38;2.80;;;7.20;70.30;;;;;;5047874;28;20033;-76
2022/02/20 05:46:41;;;;;;;5.05;2.10;;;7.20;70.20;;;;;;5043491;28;20043;-76
2022/02/20 05:49:07;;;;;;;6.15;2.47;;;7.20;70.10;;;;;;5040436;28;20070;-75
2022/02/20 05:51:33;;;;;;;10.40;3.95;;;7.20;70.10;;;;;;5045468;28;20037;-77
2022/02/20 05:53:59;;;;;;;14.52;6.47;;;7.30;70.20;;;;;;5055847;28;20564;-75
2022/02/20 05:56:25;;;;;;;9.15;3.85;;;7.20;70.00;;;;;;5057219;28;20402;-75
2022/02/20 05:58:51;;;;;;;5.95;2.65;;;7.20;70.10;;;;;;5046596;28;20406;-75
2022/02/20 06:01:17;;;;;;;5.70;2.10;;;7.30;70.20;;;;;;5064146;28;20487;-75
2022/02/20 06:03:44;;;;;;;6.07;2.10;;;7.30;70.20;;;;;;5062127;28;20044;-75
2022/02/20 06:06:10;;;;;;;5.32;1.85;;;7.30;70.20;;;;;;5045669;28;20368;-76
2022/02/20 06:08:36;;;;;;;31.02;9.63;;;7.30;70.00;;;;;;5034741;28;20045;-75
2022/02/20 06:11:02;;;;;;;39.25;19.90;;;7.30;70.10;;;;;;5034414;28;20033;-76
2022/02/20 06:13:28;;;;;;;42.63;19.25;;;7.40;70.00;;;;;;5030962;28;20115;-76
2022/02/20 06:15:54;;;;;;;51.53;23.90;;;7.40;70.90;;;;;;5048365;28;20184;-75
2022/02/20 06:18:20;;;;;;;34.15;16.15;;;7.40;69.90;;;;;;5047934;28;20071;-75
2022/02/20 06:20:46;;;;;;;21.88;11.98;;;7.30;69.90;;;;;;5031302;28;20056;-76
2022/02/20 06:23:13;;;;;;;8.73;3.17;;;7.40;70.00;;;;;;5029635;28;20049;-76
2022/02/20 06:25:39;;;;;;;6.78;2.40;;;7.40;70.00;;;;;;5026661;28;20037;-76
2022/02/20 06:28:05;;;;;;;5.25;2.30;;;7.40;69.90;;;;;;5036656;28;20546;-75
2022/02/20 06:30:31;;;;;;;13.35;8.30;;;7.40;69.90;;;;;;5049699;28;20040;-75
2022/02/20 06:32:57;;;;;;;15.15;8.02;;;7.40;69.90;;;;;;5037580;28;20124;-75
2022/02/20 06:35:23;;;;;;;14.50;5.32;;;7.40;69.90;;;;;;5039055;28;20048;-75
2022/02/20 06:37:49;;;;;;;11.63;5.35;;;7.40;69.80;;;;;;5047940;28;20040;-76
2022/02/20 06:40:16;;;;;;;9.63;3.33;;;7.50;69.80;;;;;;5046610;28;20041;-75
2022/02/20 06:42:42;;;;;;;7.40;2.75;;;7.50;69.20;;;;;;5041110;28;20033;-75
2022/02/20 06:45:08;;;;;;;;;;;7.40;69.80;;;;;;5049666;28;20128;-75
2022/02/20 06:47:35;;;;;;;8.10;3.60;;;7.40;69.70;;;;;;5041589;28;19917;-76
2022/02/20 06:50:02;;;;;;;7.90;4.03;;;7.40;69.70;;;;;;5054202;28;20064;-75
2022/02/20 06:52:28;;;;;;;7.95;3.80;;;7.40;69.70;;;;;;5047769;28;20031;-75
2022/02/20 06:54:54;;;;;;;9.20;3.88;;;7.40;69.90;;;;;;5047585;28;20033;-76
2022/02/20 06:57:20;;;;;;;9.63;4.32;;;7.40;69.90;;;;;;5030330;28;20044;-76
2022/02/20 06:59:46;;;;;;;20.95;8.98;;;7.40;69.80;;;;;;5045507;28;20041;-76
2022/02/20 07:02:12;;;;;;;16.65;6.95;;;7.40;69.70;;;;;;5028974;28;20034;-76
2022/02/20 07:04:38;;;;;;;14.18;6.80;;;7.50;69.70;;;;;;5045076;28;20040;-76
2022/02/20 07:07:04;;;;;;;7.70;3.30;;;7.50;69.50;;;;;;5030087;28;20497;-76
2022/02/20 07:09:30;;;;;;;8.35;4.00;;;7.60;69.30;;;;;;5030635;28;20049;-76
2022/02/20 07:11:56;;;;;;;6.00;2.97;;;7.60;69.20;;;;;;5043770;28;20070;-75
2022/02/20 07:14:23;;;;;;;11.68;4.30;;;7.60;69.10;;;;;;5041780;28;20033;-76
2022/02/20 07:16:49;;;;;;;6.97;3.30;;;7.70;69.10;;;;;;5056588;28;20512;-76
2022/02/20 07:19:15;;;;;;;11.68;4.70;;;7.70;68.90;;;;;;5037134;28;20036;-76
2022/02/20 07:21:43;;;;;;;8.05;3.28;;;7.70;68.90;;;;;;5047287;28;20052;-76
2022/02/20 07:24:09;;;;;;;9.25;4.68;;;7.80;68.80;;;;;;5044987;28;20037;-77
2022/02/20 07:26:35;;;;;;;32.50;14.32;;;7.80;68.20;;;;;;5059506;28;20056;-75
2022/02/20 07:29:01;;;;;;;33.95;14.93;;;7.80;68.80;;;;;;5032741;28;20042;-76
2022/02/20 07:31:28;;;;;;;12.50;4.35;;;7.90;68.70;;;;;;5035576;28;20456;-76
2022/02/20 07:33:55;;;;;;;;;;;7.90;68.50;;;;;;5062724;28;20021;-76
2022/02/20 07:36:22;;;;;;;7.80;3.92;;;7.90;68.40;;;;;;5044499;28;20439;-75
2022/02/20 07:38:48;;;;;;;9.40;4.32;;;7.90;68.40;;;;;;5030149;28;20507;-76
2022/02/20 07:41:14;;;;;;;8.18;3.70;;;7.80;68.50;;;;;;5042969;28;20036;-76
2022/02/20 07:43:44;;;;;;;9.25;4.00;;;7.90;68.70;;;;;;5048473;28;20041;-76
2022/02/20 07:46:10;;;;;;;11.32;5.20;;;8.00;68.50;;;;;;5046743;28;20033;-75
2022/02/20 07:48:36;;;;;;;8.98;4.95;;;8.00;67.60;;;;;;5033035;28;20034;-76
2022/02/20 07:51:02;;;;;;;6.32;3.42;;;8.00;68.30;;;;;;5048360;28;20040;-75
2022/02/20 07:53:29;;;;;;;16.48;9.30;;;8.10;68.10;;;;;;5043007;28;20549;-76
2022/02/20 07:55:55;;;;;;;8.63;4.22;;;8.10;68.10;;;;;;5076585;28;20526;-75
2022/02/20 07:58:22;;;;;;;8.20;3.45;;;8.10;68.10;;;;;;5050988;28;20033;-74
2022/02/20 08:00:48;;;;;;;5.53;2.58;;;8.10;68.10;;;;;;5049584;28;20084;-77
2022/02/20 08:03:14;;;;;;;6.10;2.75;;;8.20;67.90;;;;;;5027694;28;20111;-75
2022/02/20 08:05:40;;;;;;;6.22;2.72;;;8.30;67.80;;;;;;5039196;28;20380;-76
2022/02/20 08:08:06;;;;;;;7.20;3.10;;;8.40;67.30;;;;;;5034401;28;20050;-76
2022/02/20 08:10:32;;;;;;;8.27;4.18;;;8.50;67.00;;;;;;5047739;28;20511;-76
2022/02/20 08:12:59;;;;;;;7.60;4.53;;;8.60;66.60;;;;;;5007553;28;20497;-76
2022/02/20 08:15:25;;;;;;;;;;;8.70;66.60;;;;;;5052824;28;20040;-76
2022/02/20 08:17:51;;;;;;;9.73;5.43;;;8.70;66.10;;;;;;5038702;28;19956;-76
2022/02/20 08:20:18;;;;;;;15.30;7.78;;;8.70;66.40;;;;;;5029508;28;20455;-75
2022/02/20 08:22:46;;;;;;;11.07;6.45;;;8.80;66.10;;;;;;5047200;28;20701;-76
2022/02/20 08:25:12;;;;;;;9.40;4.68;;;8.90;66.00;;;;;;5047895;28;20036;-75
2022/02/20 08:27:39;;;;;;;7.82;3.42;;;8.90;66.00;;;;;;5039275;28;20128;-76
2022/02/20 08:30:09;;;;;;;6.85;2.83;;;8.80;66.00;;;;;;5064446;28;20032;-76
2022/02/20 08:32:36;;;;;;;8.55;2.17;;;8.80;65.90;;;;;;5050352;28;20094;-77
2022/02/20 08:35:08;;;;;;;6.57;2.70;;;8.90;66.10;;;;;;5011336;28;20463;-77
2022/02/20 08:37:40;;;;;;;7.88;3.70;;;8.90;65.60;;;;;;5022833;28;20037;-77
2022/02/20 08:40:07;;;;;;;9.75;4.63;;;9.00;65.30;;;;;;5043268;28;20033;-76
2022/02/20 08:42:33;;;;;;;9.35;5.22;;;9.10;65.30;;;;;;5048554;28;20112;-77
2022/02/20 08:44:59;;;;;;;10.35;5.50;;;9.10;65.30;;;;;;5022589;28;20099;-77
2022/02/20 08:47:25;;;;;;;14.65;7.78;;;9.10;65.20;;;;;;5042776;28;20554;-75
2022/02/20 08:49:52;;;;;;;15.60;8.20;;;9.10;65.20;;;;;;5039960;28;20048;-76
2022/02/20 08:52:18;;;;;;;10.18;4.88;;;9.20;64.40;;;;;;5019403;28;20469;-77
2022/02/20 08:54:44;;;;;;;;;;;9.20;64.40;;;;;;5032684;28;20031;-76
2022/02/20 08:57:10;;;;;;;6.65;2.70;;;9.20;65.20;;;;;;5062347;28;19913;-75
2022/02/20 08:59:36;;;;;;;8.00;2.78;;;9.20;64.70;;;;;;5060513;28;20059;-76
2022/02/20 09:02:04;;;;;;;6.20;3.15;;;9.20;64.80;;;;;;5057375;28;20040;-76
2022/02/20 09:04:30;;;;;;;8.13;2.63;;;9.30;64.60;;;;;;5081969;28;20037;-75
2022/02/20 09:06:56;;;;;;;4.70;2.00;;;9.30;64.60;;;;;;5068429;28;20432;-75
2022/02/20 09:09:22;;;;;;;5.25;1.77;;;9.30;64.30;;;;;;5069584;28;20067;-77
2022/02/20 09:11:49;;;;;;;7.47;2.50;;;9.20;63.90;;;;;;5068244;28;20070;-75
2022/02/20 09:14:15;;;;;;;6.38;3.13;;;9.20;64.10;;;;;;5056227;28;20047;-75
2022/02/20 09:16:42;;;;;;;;;;;9.20;63.80;;;;;;5067498;28;20037;-77
2022/02/20 09:19:08;;;;;;;9.93;5.50;;;9.20;63.90;;;;;;5055850;28;19920;-77
2022/02/20 09:21:34;;;;;;;5.03;2.35;;;9.20;63.70;;;;;;5067666;28;20536;-77
2022/02/20 09:24:00;;;;;;;10.18;4.40;;;9.10;63.60;;;;;;5059009;28;20033;-77
2022/02/20 09:26:27;;;;;;;8.05;2.90;;;9.00;64.10;;;;;;5058758;28;20032;-75
2022/02/20 09:28:53;;;;;;;5.75;2.45;;;9.00;63.90;;;;;;5051643;28;20044;-77
2022/02/20 09:31:20;;;;;;;5.85;1.90;;;8.90;63.20;;;;;;5061861;28;20140;-77
2022/02/20 09:33:46;;;;;;;5.45;2.25;;;8.90;63.90;;;;;;5051890;28;20112;-75
2022/02/20 09:36:12;;;;;;;5.18;2.50;;;8.90;63.40;;;;;;5035200;28;20017;-77
2022/02/20 09:38:38;;;;;;;;;;;9.00;62.70;;;;;;5051487;28;20154;-75
2022/02/20 09:41:26;;;;;;;5.78;1.92;;;9.10;63.40;;;;;;5050632;28;19924;-77
2022/02/20 09:43:55;;;;;;;8.65;2.00;;;9.10;62.80;;;;;;5049689;28;20093;-77
2022/02/20 09:46:23;;;;;;;5.00;2.22;;;9.20;62.50;;;;;;5066158;28;20033;-76
2022/02/20 09:48:53;;;;;;;4.18;1.70;;;9.30;61.70;;;;;;5065565;28;20047;-78
2022/02/20 09:51:20;;;;;;;4.10;1.80;;;9.40;62.10;;;;;;5033376;28;20086;-78
2022/02/20 09:53:47;;;;;;;4.10;1.70;;;9.40;61.60;;;;;;5059750;28;20041;-77
2022/02/20 09:56:13;;;;;;;4.63;1.70;;;9.40;61.50;;;;;;5065509;28;20295;-77
2022/02/20 09:58:40;;;;;;;5.45;1.95;;;9.30;61.90;;;;;;5082067;28;20037;-76
2022/02/20 10:01:12;;;;;;;6.60;2.05;;;9.30;61.70;;;;;;5061520;28;20440;-77
2022/02/20 10:03:41;;;;;;;4.18;1.80;;;9.20;61.60;;;;;;5059355;28;20169;-76
2022/02/20 10:06:28;;;;;;;7.45;3.50;;;9.20;61.70;;;;;;5050545;28;20029;-77
2022/02/20 10:08:58;;;;;;;5.53;2.00;;;9.30;62.00;;;;;;5049194;28;20063;-77
2022/02/20 10:11:45;;;;;;;7.05;2.50;;;9.20;61.80;;;;;;5050311;28;20458;-75
2022/02/20 10:14:18;;;;;;;5.20;2.75;;;9.30;62.00;;;;;;5051912;28;20489;-77
2022/02/20 10:16:44;;;;;;;11.80;5.93;;;9.40;61.40;;;;;;5090731;28;20043;-76
2022/02/20 10:19:12;;;;;;;18.48;9.73;;;9.50;61.20;;;;;;5065772;28;20070;-77
2022/02/20 10:21:39;;;;;;;20.55;6.35;;;9.50;60.80;;;;;;5049669;28;20468;-78
2022/02/20 10:24:26;;;;;;;4.95;2.38;;;9.60;60.70;;;;;;5050764;28;20041;-76
2022/02/20 10:26:52;;;;;;;12.60;7.10;;;9.70;60.50;;;;;;5050243;28;20039;-77
2022/02/20 10:29:19;;;;;;;14.27;3.97;;;9.80;60.40;;;;;;5050204;28;20086;-75
2022/02/20 10:32:04;;;;;;;7.65;2.20;;;9.80;60.40;;;;;;5047222;28;20041;-76
2022/02/20 10:34:31;;;;;;;5.68;2.25;;;9.80;60.40;;;;;;5050274;28;20072;-77
2022/02/20 10:37:16;;;;;;;;;;;9.80;61.00;;;;;;5062835;28;20501;-78
2022/02/20 10:39:44;;;;;;;69.45;29.05;;;10.10;60.20;;;;;;5051513;28;20328;-77
2022/02/20 10:42:28;;;;;;;7.95;3.08;;;10.30;59.70;;;;;;5050269;28;20044;-80
2022/02/20 10:45:34;;;;;;;38.20;14.45;;;10.30;59.40;;;;;;5050793;28;20454;-78
2022/02/20 10:48:19;;;;;;;7.50;3.35;;;10.40;59.00;;;;;;5051468;28;20486;-79
2022/02/20 10:50:57;;;;;;;5.85;2.63;;;10.40;58.90;;;;;;5063316;28;20116;-80
2022/02/20 10:53:31;;;;;;;4.10;1.83;;;10.40;58.90;;;;;;5061890;28;20037;-78
2022/02/20 10:55:59;;;;;;;5.53;1.50;;;10.40;58.90;;;;;;5051614;28;20075;-79
2022/02/20 10:58:29;;;;;;;8.32;1.83;;;10.40;59.10;;;;;;5052271;28;20120;-78
2022/02/20 11:00:58;;;;;;;4.70;1.80;;;10.40;59.00;;;;;;5065966;28;20033;-80
2022/02/20 11:03:27;;;;;;;4.45;1.90;;;10.40;58.90;;;;;;5058966;28;20048;-79
2022/02/20 11:05:56;;;;;;;7.65;3.85;;;10.50;58.60;;;;;;5052607;28;20055;-79
2022/02/20 11:08:25;;;;;;;4.35;1.90;;;10.60;58.50;;;;;;5053945;28;20132;-76
2022/02/20 11:10:53;;;;;;;3.65;1.40;;;10.60;58.20;;;;;;5052795;28;20487;-75
2022/02/20 11:13:22;;;;;;;11.48;5.13;;;10.70;58.30;;;;;;5053236;28;20128;-79
2022/02/20 11:15:52;;;;;;;9.40;4.68;;;10.80;57.80;;;;;;5065923;28;20036;-78
2022/02/20 11:18:22;;;;;;;9.77;5.05;;;10.70;57.60;;;;;;5024556;28;20141;-77
2022/02/20 11:21:08;;;;;;;15.98;9.95;;;10.80;57.50;;;;;;5068176;28;20044;-79
2022/02/20 11:23:34;;;;;;;7.97;3.95;;;11.00;57.50;;;;;;5067350;28;20044;-75
2022/02/20 11:26:03;;;;;;;4.85;2.28;;;11.10;57.00;;;;;;5070441;28;20040;-77
2022/02/20 11:28:31;;;;;;;7.43;3.88;;;11.10;56.40;;;;;;5056475;28;20744;-75
2022/02/20 11:30:57;;;;;;;2.47;1.20;;;10.90;56.60;;;;;;5057498;28;20036;-79
2022/02/20 11:33:25;;;;;;;3.65;1.40;;;10.80;56.30;;;;;;5057391;28;20209;-79
2022/02/20 11:35:52;;;;;;;4.60;1.67;;;10.60;56.90;;;;;;5066338;28;20099;-79
2022/02/20 11:38:21;;;;;;;4.53;1.60;;;10.70;57.30;;;;;;5059792;28;20457;-79
2022/02/20 11:41:24;;;;;;;2.97;1.15;;;10.70;57.30;;;;;;5060494;28;20029;-78
2022/02/20 11:43:51;;;;;;;3.20;1.30;;;10.70;57.30;;;;;;5052370;28;20049;-78
2022/02/20 11:46:46;;;;;;;4.35;1.85;;;10.60;57.20;;;;;;5063808;28;20040;-77
2022/02/20 11:49:31;;;;;;;4.15;1.80;;;10.70;57.10;;;;;;5067998;28;20489;-76
2022/02/20 11:52:16;;;;;;;3.47;1.50;;;10.70;56.60;;;;;;5064943;28;20040;-77
2022/02/20 11:54:43;;;;;;;3.70;1.60;;;10.60;56.50;;;;;;5052872;28;20037;-79
2022/02/20 11:57:28;;;;;;;3.90;1.60;;;10.60;56.80;;;;;;5053591;28;20033;-79
2022/02/20 12:00:18;;;;;;;4.25;2.00;;;10.60;57.10;;;;;;5066177;28;20406;-79
2022/02/20 12:03:40;;;;;;;5.35;2.30;;;10.60;57.10;;;;;;5068538;28;20048;-78
2022/02/20 12:06:10;;;;;;;9.13;4.97;;;10.70;56.70;;;;;;5051533;28;20060;-75
2022/02/20 12:08:56;;;;;;;13.65;6.50;;;10.80;56.30;;;;;;5053208;28;20087;-79
2022/02/20 12:11:44;;;;;;;5.28;2.60;;;10.90;56.30;;;;;;5051603;28;20045;-76
2022/02/20 12:14:30;;;;;;;35.45;17.70;;;10.90;56.30;;;;;;5051734;28;20041;-78
2022/02/20 12:17:16;;;;;;;6.40;2.50;;;11.00;56.10;;;;;;5051727;28;20099;-78
2022/02/20 12:19:50;;;;;;;7.03;2.72;;;11.00;55.90;;;;;;5051864;28;20045;-78
2022/02/20 12:22:34;;;;;;;5.55;2.25;;;11.10;55.60;;;;;;5051672;28;20090;-79
2022/02/20 12:25:36;;;;;;;4.75;1.92;;;11.20;55.60;;;;;;5059933;28;20033;-79
2022/02/20 12:28:40;;;;;;;11.20;5.57;;;11.10;55.70;;;;;;5053477;28;20043;-78
2022/02/20 12:31:25;;;;;;;4.45;2.00;;;11.10;55.40;;;;;;5049347;28;20040;-75
2022/02/20 12:33:51;;;;;;;8.98;4.80;;;11.00;55.40;;;;;;5053390;28;20052;-77
2022/02/20 12:36:47;;;;;;;16.67;6.15;;;11.10;55.20;;;;;;5035157;28;20021;-79
2022/02/20 12:39:14;;;;;;;4.07;2.00;;;11.30;55.30;;;;;;5067435;28;20053;-79
2022/02/20 12:41:40;;;;;;;11.98;5.55;;;11.30;54.40;;;;;;5048948;28;20037;-79
2022/02/20 12:44:06;;;;;;;10.10;4.93;;;11.30;55.20;;;;;;5051393;28;20056;-77
2022/02/20 12:46:33;;;;;;;5.50;2.63;;;11.20;55.10;;;;;;5049943;28;20482;-77
2022/02/20 12:49:01;;;;;;;8.70;4.90;;;11.10;55.00;;;;;;5052531;28;20063;-77
2022/02/20 12:51:27;;;;;;;15.70;7.88;;;11.10;54.90;;;;;;5050415;28;20033;-77
2022/02/20 12:53:53;;;;;;;19.75;7.80;;;11.30;55.10;;;;;;5067416;28;20037;-78
2022/02/20 12:56:19;;;;;;;20.60;8.25;;;11.40;54.70;;;;;;5068557;28;20037;-77
2022/02/20 12:59:04;;;;;;;13.75;6.68;;;11.50;54.60;;;;;;5052390;28;20035;-77
2022/02/20 13:01:30;;;;;;;12.73;6.13;;;11.50;54.60;;;;;;5050380;28;20045;-79
2022/02/20 13:03:56;;;;;;;15.68;6.93;;;11.60;54.70;;;;;;5050248;28;20041;-80
2022/02/20 13:06:42;;;;;;;13.77;5.57;;;11.50;54.60;;;;;;5050762;28;20497;-79